Time;durP1;ratioP1;P1;durP2;ratioP2;P2;SDS_P1;SDS_P2;PMS_P1;PMS_P2;Temp;Humidity;BMP_temperature;BMP_pressure;BME280_temperature;BME280_humidity;BME280_pressure;Samples;Min_cycle;Max_cycle;Signal;HPM_P1;HPM_P2
2022/07/11 00:02:17;;;;;;;2.40;2.10;;;17.20;99.90;;;;;;5053947;28;20456;-55
2022/07/11 00:04:45;;;;;;;2.00;1.80;;;17.20;99.90;;;;;;5053410;28;20445;-55
2022/07/11 00:07:12;;;;;;;6.13;2.43;;;17.20;99.90;;;;;;5053996;28;20426;-54
2022/07/11 00:09:40;;;;;;;2.83;1.97;;;17.10;99.90;;;;;;5053711;28;20877;-55
2022/07/11 00:12:08;;;;;;;2.43;2.10;;;17.20;99.90;;;;;;5053456;28;20473;-55
2022/07/11 00:14:39;;;;;;;2.13;1.90;;;17.20;99.90;;;;;;5053713;28;20480;-55
2022/07/11 00:17:09;;;;;;;2.87;2.10;;;17.20;99.90;;;;;;5053239;28;20893;-55
2022/07/11 00:19:38;;;;;;;4.70;1.80;;;17.10;99.90;;;;;;5053351;28;20458;-55
2022/07/11 00:22:06;;;;;;;2.13;1.63;;;17.20;99.90;;;;;;5053602;28;20537;-55
2022/07/11 00:24:34;;;;;;;2.77;2.20;;;17.20;99.90;;;;;;5053314;28;20523;-55
2022/07/11 00:27:01;;;;;;;2.30;2.10;;;17.20;99.90;;;;;;5053145;28;20445;-55
2022/07/11 00:29:28;;;;;;;11.93;1.90;;;17.10;99.90;;;;;;5053368;28;20568;-55
2022/07/11 00:31:57;;;;;;;2.97;2.37;;;17.20;99.90;;;;;;5053224;28;20445;-55
2022/07/11 00:34:29;;;;;;;2.10;2.00;;;17.20;99.90;;;;;;5053251;28;20541;-55
2022/07/11 00:36:56;;;;;;;3.60;2.80;;;17.20;99.90;;;;;;5053458;28;20453;-55
2022/07/11 00:39:23;;;;;;;2.87;2.60;;;17.20;99.90;;;;;;5052930;28;20481;-55
2022/07/11 00:41:51;;;;;;;2.77;2.57;;;17.20;99.90;;;;;;5052413;28;20532;-55
2022/07/11 00:44:18;;;;;;;3.50;2.43;;;17.10;99.90;;;;;;5053307;28;20886;-55
2022/07/11 00:46:45;;;;;;;2.50;2.30;;;17.10;99.90;;;;;;5052982;28;20445;-55
2022/07/11 00:49:13;;;;;;;3.13;2.40;;;17.10;99.90;;;;;;5053083;28;20475;-55
2022/07/11 00:51:41;;;;;;;3.13;2.83;;;17.00;99.90;;;;;;5053141;28;20449;-55
2022/07/11 00:54:10;;;;;;;2.60;2.40;;;17.10;99.90;;;;;;5053146;28;20485;-55
2022/07/11 00:56:37;;;;;;;3.60;2.43;;;17.00;99.90;;;;;;5052846;28;20892;-55
2022/07/11 00:59:05;;;;;;;3.67;3.37;;;17.00;99.90;;;;;;5053054;28;20560;-55
2022/07/11 01:01:34;;;;;;;3.20;2.40;;;16.90;99.90;;;;;;5053032;28;20449;-55
2022/07/11 01:04:03;;;;;;;5.93;2.20;;;16.90;99.90;;;;;;5053240;28;20499;-55
2022/07/11 01:06:31;;;;;;;2.90;2.70;;;16.90;99.90;;;;;;5053041;28;20916;-55
2022/07/11 01:08:59;;;;;;;3.23;2.30;;;16.90;99.90;;;;;;5052799;28;20460;-55
2022/07/11 01:11:28;;;;;;;5.53;2.67;;;17.00;99.90;;;;;;5052952;28;20479;-55
2022/07/11 01:13:56;;;;;;;2.60;2.40;;;17.00;99.90;;;;;;5052573;28;20529;-55
2022/07/11 01:16:24;;;;;;;2.90;2.63;;;17.00;99.90;;;;;;5052756;28;20481;-55
2022/07/11 01:18:52;;;;;;;2.80;2.60;;;17.10;99.90;;;;;;5053170;28;20460;-55
2022/07/11 01:21:25;;;;;;;2.47;2.30;;;17.10;99.90;;;;;;5052490;28;20469;-55
2022/07/11 01:23:55;;;;;;;2.77;2.57;;;17.10;99.90;;;;;;5052579;28;20433;-55
2022/07/11 01:26:24;;;;;;;3.20;2.40;;;17.00;99.90;;;;;;5052553;28;20433;-55
2022/07/11 01:28:52;;;;;;;3.30;3.00;;;17.10;99.90;;;;;;5052621;28;20944;-55
2022/07/11 01:31:20;;;;;;;3.87;2.93;;;16.90;99.90;;;;;;5052381;28;20832;-55
2022/07/11 01:33:48;;;;;;;3.37;2.80;;;17.00;99.90;;;;;;5052541;28;20465;-55
2022/07/11 01:36:15;;;;;;;7.00;3.00;;;17.00;99.90;;;;;;5052756;28;20987;-55
2022/07/11 01:38:42;;;;;;;4.70;2.87;;;16.90;99.90;;;;;;5052380;28;20476;-55
2022/07/11 01:41:10;;;;;;;2.90;2.67;;;17.00;99.90;;;;;;5052620;28;20483;-55
2022/07/11 01:43:38;;;;;;;3.37;2.70;;;17.00;99.90;;;;;;5052455;28;20453;-55
2022/07/11 01:46:05;;;;;;;3.27;2.97;;;17.00;99.90;;;;;;5053095;28;20463;-54
2022/07/11 01:48:32;;;;;;;3.03;2.50;;;17.00;99.90;;;;;;5052476;28;20536;-55
2022/07/11 01:51:00;;;;;;;2.73;2.53;;;17.10;99.90;;;;;;5052279;28;20475;-55
2022/07/11 01:53:27;;;;;;;2.97;2.60;;;17.10;99.90;;;;;;5053603;28;20475;-54
2022/07/11 01:55:54;;;;;;;4.80;3.00;;;17.10;99.90;;;;;;5055970;28;20692;-54
2022/07/11 01:58:23;;;;;;;3.67;3.37;;;17.00;99.90;;;;;;5055918;28;20451;-54
2022/07/11 02:00:50;;;;;;;2.80;2.60;;;16.90;99.90;;;;;;5056285;28;20823;-54
2022/07/11 02:03:17;;;;;;;2.83;2.63;;;16.90;99.90;;;;;;5055842;28;20445;-55
2022/07/11 02:05:45;;;;;;;3.10;2.90;;;16.80;99.90;;;;;;5056110;28;20481;-54
2022/07/11 02:08:12;;;;;;;4.07;3.67;;;16.80;99.90;;;;;;5056196;28;20452;-54
2022/07/11 02:10:41;;;;;;;3.17;2.87;;;16.80;99.90;;;;;;5055752;28;20463;-54
2022/07/11 02:13:09;;;;;;;3.43;3.13;;;16.80;99.90;;;;;;5055956;28;20433;-54
2022/07/11 02:15:39;;;;;;;2.90;2.67;;;16.70;99.90;;;;;;5056002;28;20481;-54
2022/07/11 02:18:07;;;;;;;3.07;2.80;;;16.70;99.90;;;;;;5055588;28;20438;-54
2022/07/11 02:20:34;;;;;;;3.10;2.90;;;16.70;99.90;;;;;;5055485;28;20995;-54
2022/07/11 02:23:02;;;;;;;3.53;3.23;;;16.70;99.90;;;;;;5055574;28;20445;-54
2022/07/11 02:25:29;;;;;;;3.37;3.10;;;16.80;99.90;;;;;;5055438;28;20451;-54
2022/07/11 02:27:56;;;;;;;2.90;2.60;;;16.80;99.90;;;;;;5055737;28;20548;-54
2022/07/11 02:30:23;;;;;;;3.20;3.00;;;16.90;99.90;;;;;;5055788;28;20465;-55
2022/07/11 02:32:53;;;;;;;2.97;2.77;;;16.80;99.90;;;;;;5055760;28;20481;-54
2022/07/11 02:35:20;;;;;;;2.83;2.63;;;16.70;99.90;;;;;;5055504;28;20461;-55
2022/07/11 02:37:48;;;;;;;3.10;2.90;;;16.70;99.90;;;;;;5055246;28;20449;-55
2022/07/11 02:40:15;;;;;;;3.43;2.90;;;16.80;99.90;;;;;;5055609;28;20465;-54
2022/07/11 02:42:42;;;;;;;2.97;2.73;;;17.00;99.90;;;;;;5055469;28;20445;-54
2022/07/11 02:45:10;;;;;;;3.03;2.80;;;16.90;99.90;;;;;;5055050;28;20484;-54
2022/07/11 02:47:39;;;;;;;2.77;2.57;;;16.90;99.90;;;;;;5055353;28;20445;-54
2022/07/11 02:50:10;;;;;;;3.53;2.90;;;16.80;99.90;;;;;;5054960;28;21046;-54
2022/07/11 02:52:37;;;;;;;3.87;3.10;;;16.90;99.90;;;;;;5055284;28;20422;-55
2022/07/11 02:55:05;;;;;;;3.40;3.10;;;16.90;99.90;;;;;;5055353;28;20445;-55
2022/07/11 02:57:32;;;;;;;4.13;3.17;;;17.00;99.90;;;;;;5054796;28;21077;-54
2022/07/11 02:59:59;;;;;;;3.27;2.97;;;16.90;99.90;;;;;;5055008;28;20557;-55
2022/07/11 03:02:26;;;;;;;3.50;3.00;;;16.90;99.90;;;;;;5055093;28;20449;-55
2022/07/11 03:04:53;;;;;;;3.10;2.63;;;17.10;99.90;;;;;;5054037;28;20485;-54
2022/07/11 03:07:22;;;;;;;3.40;3.10;;;17.10;99.90;;;;;;5054678;28;20440;-54
2022/07/11 03:09:49;;;;;;;3.97;3.57;;;17.20;99.90;;;;;;5054684;28;20469;-54
2022/07/11 03:12:16;;;;;;;3.93;3.43;;;17.30;99.90;;;;;;5055005;28;20492;-55
2022/07/11 03:14:43;;;;;;;3.33;3.03;;;17.10;99.90;;;;;;5054569;28;20430;-55
2022/07/11 03:17:10;;;;;;;3.40;2.93;;;17.10;99.90;;;;;;5054347;28;21017;-55
2022/07/11 03:19:38;;;;;;;3.70;3.40;;;17.00;99.90;;;;;;5055016;28;20552;-54
2022/07/11 03:22:05;;;;;;;4.07;3.50;;;16.90;99.90;;;;;;5054679;28;20507;-54
2022/07/11 03:24:34;;;;;;;3.33;3.03;;;16.90;99.90;;;;;;5054651;28;20536;-54
2022/07/11 03:27:01;;;;;;;4.50;4.10;;;16.90;99.90;;;;;;5054717;28;20528;-54
2022/07/11 03:29:28;;;;;;;3.80;3.50;;;16.90;99.90;;;;;;5054168;28;20556;-55
2022/07/11 03:31:55;;;;;;;4.00;3.73;;;16.80;99.90;;;;;;5054493;28;20532;-54
2022/07/11 03:34:22;;;;;;;4.40;4.00;;;16.80;99.90;;;;;;5054249;28;20449;-54
2022/07/11 03:36:50;;;;;;;3.47;3.17;;;16.80;99.90;;;;;;5054506;28;20836;-55
2022/07/11 03:39:17;;;;;;;3.90;3.60;;;16.80;99.90;;;;;;5052720;28;20560;-54
2022/07/11 03:41:45;;;;;;;3.63;3.13;;;16.90;99.90;;;;;;5054436;28;20532;-55
2022/07/11 03:44:13;;;;;;;4.20;3.37;;;16.80;99.90;;;;;;5053885;28;20445;-54
2022/07/11 03:46:40;;;;;;;5.40;3.83;;;16.90;99.90;;;;;;5054200;28;20473;-54
2022/07/11 03:49:08;;;;;;;3.60;3.40;;;16.90;99.90;;;;;;5054102;28;20449;-55
2022/07/11 03:51:35;;;;;;;4.00;3.70;;;16.90;99.90;;;;;;5054094;28;20484;-55
2022/07/11 03:54:03;;;;;;;4.27;3.87;;;16.80;99.90;;;;;;5054044;28;20459;-54
2022/07/11 03:56:30;;;;;;;4.53;4.13;;;16.80;99.90;;;;;;5053754;28;21023;-54
2022/07/11 03:58:58;;;;;;;5.47;3.80;;;16.80;99.90;;;;;;5054009;28;20471;-55
2022/07/11 04:01:26;;;;;;;4.87;3.60;;;16.80;99.90;;;;;;5053833;28;20480;-55
2022/07/11 04:03:53;;;;;;;3.80;3.40;;;16.80;99.90;;;;;;5053704;28;20811;-54
2022/07/11 04:06:20;;;;;;;6.40;4.60;;;16.90;99.90;;;;;;5053907;28;20543;-54
2022/07/11 04:08:47;;;;;;;5.80;4.40;;;16.90;99.90;;;;;;5053632;28;20449;-54
2022/07/11 04:11:14;;;;;;;3.73;3.43;;;17.00;99.90;;;;;;5053524;28;20548;-55
2022/07/11 04:13:42;;;;;;;3.83;3.53;;;17.00;99.90;;;;;;5053825;28;20536;-55
2022/07/11 04:16:10;;;;;;;4.40;4.00;;;16.90;99.90;;;;;;5053289;28;20903;-55
2022/07/11 04:18:37;;;;;;;3.90;3.60;;;17.00;99.90;;;;;;5053090;28;20457;-54
2022/07/11 04:21:05;;;;;;;4.40;4.00;;;17.10;99.90;;;;;;5053575;28;20469;-54
2022/07/11 04:23:32;;;;;;;5.00;3.90;;;17.10;99.90;;;;;;5053289;28;20455;-55
2022/07/11 04:25:59;;;;;;;4.23;3.93;;;17.10;99.90;;;;;;5053424;28;20448;-54
2022/07/11 04:28:26;;;;;;;6.27;4.07;;;17.00;99.90;;;;;;5053678;28;20802;-54
2022/07/11 04:30:54;;;;;;;5.07;4.57;;;17.10;99.90;;;;;;5053233;28;20809;-54
2022/07/11 04:33:22;;;;;;;5.50;5.00;;;17.10;99.90;;;;;;5053117;28;20433;-55
2022/07/11 04:35:49;;;;;;;4.83;4.00;;;17.10;99.90;;;;;;5053195;28;20452;-54
2022/07/11 04:38:21;;;;;;;4.33;4.03;;;17.10;99.90;;;;;;5052761;28;20679;-54
2022/07/11 04:40:48;;;;;;;5.03;4.60;;;17.20;99.90;;;;;;5052882;28;20479;-54
2022/07/11 04:43:15;;;;;;;7.17;4.13;;;17.30;99.90;;;;;;5053042;28;20453;-55
2022/07/11 04:45:43;;;;;;;4.53;4.13;;;17.40;99.90;;;;;;5052944;28;20440;-55
2022/07/11 04:48:10;;;;;;;4.27;3.77;;;17.60;99.90;;;;;;5052863;28;20947;-54
2022/07/11 04:50:39;;;;;;;4.50;4.10;;;17.60;99.90;;;;;;5053208;28;20564;-55
2022/07/11 04:53:06;;;;;;;4.90;4.40;;;17.70;99.90;;;;;;5053141;28;20449;-55
2022/07/11 04:55:37;;;;;;;5.00;4.23;;;17.70;99.90;;;;;;5052782;28;20449;-54
2022/07/11 04:58:04;;;;;;;4.27;3.90;;;17.80;99.90;;;;;;5053015;28;20501;-55
2022/07/11 05:00:31;;;;;;;6.07;4.50;;;17.60;99.90;;;;;;5053123;28;20508;-55
2022/07/11 05:02:58;;;;;;;5.40;4.93;;;17.60;99.90;;;;;;5052700;28;20503;-55
2022/07/11 05:05:26;;;;;;;4.83;4.43;;;17.50;99.90;;;;;;5052946;28;20815;-55
2022/07/11 05:07:54;;;;;;;5.50;4.97;;;17.60;99.90;;;;;;5052802;28;20447;-54
2022/07/11 05:10:21;;;;;;;5.10;4.70;;;17.60;99.90;;;;;;5052558;28;21008;-54
2022/07/11 05:12:49;;;;;;;5.20;4.80;;;17.50;99.90;;;;;;5052568;28;20532;-54
2022/07/11 05:15:16;;;;;;;9.07;4.50;;;17.50;99.90;;;;;;5052972;28;20449;-54
2022/07/11 05:17:43;;;;;;;5.00;4.60;;;17.60;99.90;;;;;;5052683;28;20525;-55
2022/07/11 05:20:11;;;;;;;5.83;4.30;;;17.90;99.90;;;;;;5052730;28;20560;-54
2022/07/11 05:22:38;;;;;;;4.73;4.33;;;18.00;99.90;;;;;;5052804;28;20540;-55
2022/07/11 05:25:08;;;;;;;8.33;4.40;;;18.10;99.90;;;;;;5052695;28;20488;-54
2022/07/11 05:27:35;;;;;;;4.70;4.20;;;18.00;99.90;;;;;;5052658;28;20524;-54
2022/07/11 05:30:02;;;;;;;4.73;4.33;;;18.00;99.90;;;;;;5056577;28;20552;-55
2022/07/11 05:32:29;;;;;;;5.07;4.57;;;18.30;99.90;;;;;;5056505;28;20487;-55
2022/07/11 05:34:58;;;;;;;5.40;4.33;;;18.40;99.90;;;;;;5056131;28;20555;-55
2022/07/11 05:37:25;;;;;;;4.43;4.13;;;18.50;99.90;;;;;;5056490;28;20480;-55
2022/07/11 05:39:52;;;;;;;4.83;4.43;;;18.40;99.90;;;;;;5056009;28;20481;-55
2022/07/11 05:42:21;;;;;;;4.23;3.93;;;18.40;99.90;;;;;;5056328;28;20452;-55
2022/07/11 05:44:49;;;;;;;4.27;3.80;;;18.60;99.90;;;;;;5056074;28;20915;-54
2022/07/11 05:47:17;;;;;;;4.63;4.20;;;18.80;99.90;;;;;;5056136;28;20516;-55
2022/07/11 05:49:44;;;;;;;4.27;3.97;;;18.70;99.90;;;;;;5055833;28;20458;-55
2022/07/11 05:52:12;;;;;;;4.53;4.13;;;18.60;99.90;;;;;;5055923;28;21035;-55
2022/07/11 05:54:39;;;;;;;4.70;4.30;;;18.70;99.90;;;;;;5056416;28;20503;-55
2022/07/11 05:57:07;;;;;;;4.40;3.90;;;18.80;99.90;;;;;;5055969;28;20492;-55
2022/07/11 05:59:37;;;;;;;4.87;4.47;;;18.80;99.90;;;;;;5056221;28;20836;-55
2022/07/11 06:02:05;;;;;;;4.73;4.40;;;18.80;99.90;;;;;;5056415;28;20483;-55
2022/07/11 06:04:34;;;;;;;4.60;4.20;;;18.80;99.90;;;;;;5056148;28;20449;-54
2022/07/11 06:07:01;;;;;;;4.40;4.03;;;18.70;99.90;;;;;;5055766;28;20924;-54
2022/07/11 06:09:27;;;;;;;4.80;4.30;;;18.70;99.90;;;;;;5055842;28;20509;-54
2022/07/11 06:11:55;;;;;;;4.30;4.00;;;18.80;99.90;;;;;;5056049;28;20445;-55
2022/07/11 06:14:22;;;;;;;4.43;3.87;;;18.80;99.90;;;;;;5056011;28;20856;-55
2022/07/11 06:16:50;;;;;;;4.50;4.10;;;18.90;99.90;;;;;;5055943;28;20519;-55
2022/07/11 06:19:18;;;;;;;3.97;3.50;;;19.00;99.90;;;;;;5055738;28;20489;-54
2022/07/11 06:21:45;;;;;;;8.10;4.00;;;19.10;99.90;;;;;;5055583;28;20496;-55
2022/07/11 06:24:12;;;;;;;7.83;4.43;;;;;;;;;;5055754;28;20449;-54
2022/07/11 06:26:40;;;;;;;4.93;3.80;;;19.10;99.90;;;;;;5055602;28;20932;-54
2022/07/11 06:29:07;;;;;;;5.63;3.90;;;19.20;99.90;;;;;;5055311;28;20485;-55
2022/07/11 06:31:34;;;;;;;3.90;3.60;;;19.20;99.90;;;;;;5055555;28;20507;-54
2022/07/11 06:34:03;;;;;;;3.93;3.53;;;19.20;99.90;;;;;;5055626;28;20548;-55
2022/07/11 06:36:30;;;;;;;7.63;5.63;;;19.40;99.90;;;;;;5055580;28;20457;-55
2022/07/11 06:38:58;;;;;;;4.10;3.50;;;19.20;99.90;;;;;;5054771;28;20477;-55
2022/07/11 06:41:25;;;;;;;3.90;3.53;;;19.20;99.90;;;;;;5054416;28;20479;-55
2022/07/11 06:43:52;;;;;;;3.90;3.60;;;19.10;99.90;;;;;;5055205;28;20526;-55
2022/07/11 06:46:19;;;;;;;4.00;3.60;;;19.10;99.90;;;;;;5054997;28;20445;-55
2022/07/11 06:48:46;;;;;;;4.47;4.00;;;19.10;99.90;;;;;;5055015;28;20445;-54
2022/07/11 06:51:15;;;;;;;4.33;3.90;;;19.00;99.90;;;;;;5054923;28;20893;-54
2022/07/11 06:53:42;;;;;;;4.93;4.30;;;19.30;99.90;;;;;;5055089;28;20476;-55
2022/07/11 06:56:10;;;;;;;4.17;3.63;;;;;;;;;;5054749;28;20441;-55
2022/07/11 06:58:37;;;;;;;4.97;3.90;;;19.60;99.90;;;;;;5054644;28;20476;-55
2022/07/11 07:01:07;;;;;;;4.60;4.20;;;19.60;99.90;;;;;;5054391;28;21009;-54
2022/07/11 07:03:35;;;;;;;4.70;4.20;;;19.50;99.90;;;;;;5054764;28;20457;-55
2022/07/11 07:06:03;;;;;;;4.40;4.10;;;19.60;99.90;;;;;;5054146;28;20975;-55
2022/07/11 07:08:31;;;;;;;5.93;3.93;;;19.50;99.90;;;;;;5054380;28;20508;-55
2022/07/11 07:10:59;;;;;;;4.80;4.20;;;19.70;99.90;;;;;;5054306;28;20466;-55
2022/07/11 07:13:28;;;;;;;5.83;4.03;;;20.00;99.90;;;;;;5054317;28;20449;-55
2022/07/11 07:15:56;;;;;;;6.83;3.97;;;20.20;99.90;;;;;;5054631;28;20453;-55
2022/07/11 07:18:24;;;;;;;4.13;3.73;;;20.30;99.90;;;;;;5053947;28;20481;-55
2022/07/11 07:20:52;;;;;;;3.73;3.43;;;20.20;99.90;;;;;;5054399;28;20469;-55
2022/07/11 07:23:19;;;;;;;3.90;3.50;;;19.90;99.90;;;;;;5053981;28;20459;-55
2022/07/11 07:25:48;;;;;;;3.23;3.03;;;19.90;99.90;;;;;;5054482;28;20477;-55
2022/07/11 07:28:15;;;;;;;3.90;3.13;;;19.90;99.90;;;;;;5054494;28;20441;-55
2022/07/11 07:30:43;;;;;;;3.30;3.00;;;20.40;99.90;;;;;;5067751;28;20483;-55
2022/07/11 07:33:12;;;;;;;3.40;2.90;;;20.60;99.90;;;;;;5074299;28;20448;-55
2022/07/11 07:35:40;;;;;;;6.13;3.00;;;21.00;99.90;;;;;;5074091;28;20919;-55
2022/07/11 07:38:07;;;;;;;3.20;3.00;;;;;;;;;;5073783;28;20512;-54
2022/07/11 07:40:34;;;;;;;2.60;2.40;;;21.50;99.90;;;;;;5073969;28;20455;-55
2022/07/11 07:43:03;;;;;;;3.07;2.80;;;21.50;99.90;;;;;;5073989;28;20505;-55
2022/07/11 07:45:30;;;;;;;3.83;3.07;;;21.20;99.90;;;;;;5073624;28;20855;-55
2022/07/11 07:47:58;;;;;;;2.63;2.43;;;21.20;99.90;;;;;;5073689;28;20527;-55
2022/07/11 07:50:26;;;;;;;3.20;3.00;;;21.50;99.90;;;;;;5073536;28;20526;-55
2022/07/11 07:52:54;;;;;;;3.30;2.93;;;21.60;99.90;;;;;;5073876;28;20463;-55
2022/07/11 07:55:21;;;;;;;3.00;2.80;;;21.70;99.90;;;;;;5073998;28;20452;-55
2022/07/11 07:57:48;;;;;;;2.80;2.60;;;21.90;99.90;;;;;;5073568;28;20567;-55
2022/07/11 08:03:05;;;;;;;2.77;2.57;;;23.10;99.90;;;;;;5073842;28;20416;-55
2022/07/11 08:05:33;;;;;;;2.97;2.77;;;23.20;99.90;;;;;;5073138;28;20470;-55
2022/07/11 08:08:00;;;;;;;3.90;2.60;;;23.60;99.90;;;;;;5073313;28;20436;-55
2022/07/11 08:10:28;;;;;;;2.90;2.60;;;23.90;99.90;;;;;;5073347;28;20472;-56
2022/07/11 08:12:55;;;;;;;2.60;2.40;;;24.20;99.90;;;;;;5073671;28;20448;-56
2022/07/11 08:15:24;;;;;;;2.90;2.70;;;24.50;99.90;;;;;;5073356;28;20448;-55
2022/07/11 08:17:52;;;;;;;2.73;2.00;;;24.60;98.50;;;;;;5073553;28;20508;-55
2022/07/11 08:20:19;;;;;;;2.97;2.77;;;25.10;99.20;;;;;;5073674;28;20530;-55
2022/07/11 08:22:47;;;;;;;2.87;2.30;;;25.60;98.30;;;;;;5073136;28;20499;-55
2022/07/11 08:25:14;;;;;;;4.20;2.93;;;26.40;96.70;;;;;;5073357;28;20498;-55
2022/07/11 08:27:41;;;;;;;2.17;2.00;;;26.70;95.70;;;;;;5073288;28;20539;-55
2022/07/11 08:30:09;;;;;;;2.73;2.53;;;26.80;94.40;;;;;;5072867;28;21014;-56
2022/07/11 08:32:41;;;;;;;2.67;2.20;;;25.30;94.50;;;;;;5073202;28;20501;-54
2022/07/11 08:35:08;;;;;;;2.80;2.17;;;26.00;95.70;;;;;;5073211;28;20464;-55
2022/07/11 08:37:37;;;;;;;3.97;2.10;;;26.70;95.00;;;;;;5073251;28;20970;-55
2022/07/11 08:40:05;;;;;;;2.60;2.40;;;27.30;93.50;;;;;;5072715;28;20488;-55
2022/07/11 08:42:36;;;;;;;1.90;1.80;;;27.60;92.40;;;;;;5073027;28;20807;-56
2022/07/11 08:45:04;;;;;;;2.20;1.97;;;27.40;91.60;;;;;;5073231;28;20839;-56
2022/07/11 08:47:32;;;;;;;2.20;2.00;;;27.50;91.70;;;;;;5073276;28;20470;-56
2022/07/11 08:50:01;;;;;;;2.10;1.90;;;27.60;90.70;;;;;;5073040;28;20547;-56
2022/07/11 08:52:29;;;;;;;2.63;1.90;;;27.50;90.00;;;;;;5072982;28;20429;-56
2022/07/11 08:54:57;;;;;;;4.13;2.10;;;27.90;89.20;;;;;;5073195;28;20452;-57
2022/07/11 08:57:24;;;;;;;4.53;2.27;;;28.60;87.40;;;;;;5072665;28;20488;-56
2022/07/11 08:59:55;;;;;;;2.10;1.90;;;28.20;85.70;;;;;;5073099;28;20474;-56
2022/07/11 09:02:22;;;;;;;3.10;1.73;;;28.70;87.20;;;;;;5073000;28;20482;-55
2022/07/11 09:04:49;;;;;;;2.10;1.90;;;28.60;86.00;;;;;;5072213;28;20486;-55
2022/07/11 09:07:18;;;;;;;2.03;1.93;;;28.80;80.90;;;;;;5073041;28;20432;-55
2022/07/11 09:09:45;;;;;;;2.10;2.00;;;28.20;81.20;;;;;;5072901;28;20887;-55
2022/07/11 09:12:16;;;;;;;2.63;2.10;;;26.60;85.80;;;;;;5072395;28;20502;-55
2022/07/11 09:14:48;;;;;;;2.10;1.90;;;26.70;87.70;;;;;;5073134;28;20857;-55
2022/07/11 09:17:15;;;;;;;3.50;2.20;;;26.30;86.40;;;;;;5072461;28;20440;-55
2022/07/11 09:19:42;;;;;;;2.87;2.07;;;25.70;88.10;;;;;;5072183;28;20547;-55
2022/07/11 09:27:46;;;;;;;1.80;1.70;;;28.00;84.40;;;;;;5072508;28;20918;-55
2022/07/11 09:30:22;;;;;;;2.30;1.87;;;28.00;84.40;;;;;;5072601;28;20567;-56
2022/07/11 09:32:58;;;;;;;2.07;1.87;;;27.20;81.30;;;;;;5072509;28;20515;-56
2022/07/11 09:35:26;;;;;;;1.60;1.50;;;26.00;85.30;;;;;;5072649;28;20480;-55
2022/07/11 09:37:54;;;;;;;2.83;2.00;;;25.40;87.70;;;;;;5072381;28;20614;-55
2022/07/11 09:40:25;;;;;;;2.70;2.43;;;25.30;89.20;;;;;;5072350;28;20476;-56
2022/07/11 09:42:54;;;;;;;3.03;2.43;;;24.70;88.70;;;;;;5072701;28;20456;-55
2022/07/11 09:45:23;;;;;;;1.90;1.80;;;24.00;90.40;;;;;;5072534;28;20452;-56
2022/07/11 09:47:51;;;;;;;1.80;1.70;;;23.70;90.00;;;;;;5072153;28;20487;-55
2022/07/11 09:50:20;;;;;;;3.00;2.00;;;23.40;90.10;;;;;;5072116;28;20475;-56
2022/07/11 09:53:04;;;;;;;1.87;1.67;;;23.30;89.40;;;;;;5072699;28;20547;-56
2022/07/11 09:55:34;;;;;;;2.30;2.10;;;23.10;88.90;;;;;;5072171;28;20486;-55
2022/07/11 09:58:05;;;;;;;2.77;1.67;;;23.30;90.00;;;;;;5072580;28;20560;-55
2022/07/11 10:00:33;;;;;;;1.87;1.50;;;23.60;89.90;;;;;;5072060;28;20464;-55
2022/07/11 10:03:01;;;;;;;2.70;1.73;;;23.50;90.40;;;;;;5072723;28;20452;-56
2022/07/11 10:05:29;;;;;;;2.17;1.60;;;23.30;90.40;;;;;;5072024;28;20521;-56
2022/07/11 10:07:57;;;;;;;2.70;1.60;;;23.20;90.60;;;;;;5072221;28;20545;-58
2022/07/11 10:10:25;;;;;;;3.50;1.90;;;23.40;91.60;;;;;;5072411;28;20483;-55
2022/07/11 10:12:54;;;;;;;2.50;2.30;;;23.70;90.70;;;;;;5072291;28;20539;-55
2022/07/11 10:15:28;;;;;;;2.03;1.80;;;23.70;90.40;;;;;;5073152;28;20501;-55
2022/07/11 10:18:06;;;;;;;3.63;2.00;;;23.90;90.30;;;;;;5075498;28;20474;-55
2022/07/11 10:20:40;;;;;;;1.50;1.40;;;24.00;88.40;;;;;;5075418;28;20508;-55
2022/07/11 10:23:16;;;;;;;2.97;1.73;;;24.30;88.00;;;;;;5075335;28;20429;-55
2022/07/11 10:25:48;;;;;;;1.77;1.67;;;24.60;90.60;;;;;;5074610;28;20520;-55
2022/07/11 10:28:24;;;;;;;2.00;1.80;;;;;;;;;;5075153;28;20516;-55
2022/07/11 10:30:55;;;;;;;3.13;1.70;;;25.60;88.10;;;;;;5075254;28;20518;-55
2022/07/11 10:33:23;;;;;;;1.70;1.60;;;25.40;87.00;;;;;;5075191;28;20459;-56
2022/07/11 10:35:52;;;;;;;3.97;1.90;;;25.00;89.40;;;;;;5074799;28;20452;-56
2022/07/11 10:38:20;;;;;;;1.80;1.70;;;24.40;88.20;;;;;;5074733;28;21024;-56
2022/07/11 10:40:49;;;;;;;1.90;1.80;;;24.80;89.60;;;;;;5075330;28;20468;-56
2022/07/11 10:43:38;;;;;;;2.37;1.90;;;25.50;90.10;;;;;;5074977;28;20453;-56
2022/07/11 10:46:07;;;;;;;1.93;1.80;;;25.70;88.00;;;;;;5075164;28;20507;-56
2022/07/11 10:48:36;;;;;;;2.80;1.93;;;26.40;86.70;;;;;;5075090;28;20440;-56
2022/07/11 10:51:17;;;;;;;1.90;1.70;;;27.10;82.20;;;;;;5074752;28;20497;-56
2022/07/11 10:53:49;;;;;;;2.13;1.53;;;26.70;87.40;;;;;;5075094;28;20445;-56
2022/07/11 10:56:36;;;;;;;2.73;2.00;;;26.40;83.20;;;;;;5075162;28;20478;-56
2022/07/11 10:59:13;;;;;;;2.37;2.17;;;26.10;84.30;;;;;;5073273;28;20480;-56
2022/07/11 11:02:19;;;;;;;1.60;1.50;;;25.90;85.10;;;;;;5075273;28;20428;-55
2022/07/11 11:04:49;;;;;;;1.90;1.80;;;25.80;83.20;;;;;;5054513;28;20456;-55
2022/07/11 11:07:35;;;;;;;2.00;1.90;;;25.40;82.80;;;;;;5074783;28;20427;-55
2022/07/11 11:10:06;;;;;;;2.17;2.00;;;25.50;83.10;;;;;;5074649;28;20471;-55
2022/07/11 11:13:11;;;;;;;2.13;2.00;;;25.10;83.20;;;;;;5074611;28;20540;-56
2022/07/11 11:15:43;;;;;;;1.80;1.70;;;24.90;87.40;;;;;;5074651;28;20447;-55
2022/07/11 11:18:37;;;;;;;2.67;1.90;;;25.20;84.80;;;;;;5074127;28;20824;-55
2022/07/11 11:21:25;;;;;;;2.53;1.90;;;25.30;86.50;;;;;;5074113;28;20472;-55
2022/07/11 11:24:10;;;;;;;2.50;2.10;;;25.20;84.80;;;;;;5071097;28;20486;-55
2022/07/11 11:26:49;;;;;;;1.90;1.80;;;25.20;85.70;;;;;;5073849;28;20479;-55
2022/07/11 11:29:24;;;;;;;1.90;1.80;;;25.30;86.20;;;;;;5074487;28;20448;-55
2022/07/11 11:31:55;;;;;;;2.30;2.10;;;25.60;85.40;;;;;;5074297;28;20512;-55
2022/07/11 11:34:23;;;;;;;3.00;1.90;;;25.60;85.50;;;;;;5074466;28;20429;-56
2022/07/11 11:36:54;;;;;;;2.27;2.07;;;28.10;89.20;;;;;;5074269;28;20543;-55
2022/07/11 11:39:26;;;;;;;3.57;2.30;;;27.50;86.20;;;;;;5073908;28;20541;-55
2022/07/11 11:41:53;;;;;;;2.70;1.93;;;28.50;81.90;;;;;;5074082;28;20520;-55
2022/07/11 11:44:21;;;;;;;2.07;1.87;;;27.40;79.20;;;;;;5073745;28;20450;-55
2022/07/11 11:46:53;;;;;;;2.17;1.97;;;26.90;80.10;;;;;;5073856;28;20449;-55
2022/07/11 11:49:20;;;;;;;4.77;2.13;;;28.10;84.30;;;;;;5073881;28;20435;-55
2022/07/11 11:51:49;;;;;;;2.10;1.97;;;28.80;78.70;;;;;;5073550;28;20448;-56
2022/07/11 11:54:24;;;;;;;2.40;2.20;;;27.80;77.70;;;;;;5073442;28;20452;-56
2022/07/11 11:56:51;;;;;;;2.73;2.53;;;;;;;;;;5073652;28;20432;-56
2022/07/11 11:59:19;;;;;;;2.53;1.80;;;26.70;80.50;;;;;;5073235;28;20484;-55
2022/07/11 12:01:48;;;;;;;2.07;1.97;;;26.00;82.10;;;;;;5073220;28;20429;-55
2022/07/11 12:04:17;;;;;;;2.40;2.20;;;25.80;82.20;;;;;;5073748;28;20808;-55
2022/07/11 12:06:46;;;;;;;2.93;2.20;;;25.80;84.60;;;;;;5073781;28;20460;-55
2022/07/11 12:09:15;;;;;;;2.20;2.00;;;26.10;85.20;;;;;;5073243;28;20444;-55
2022/07/11 12:11:44;;;;;;;2.67;2.47;;;27.20;83.90;;;;;;5073166;28;20478;-55
2022/07/11 12:14:13;;;;;;;2.20;2.00;;;27.90;80.30;;;;;;5073260;28;20596;-55
2022/07/11 12:16:46;;;;;;;2.47;2.27;;;27.80;79.00;;;;;;5073434;28;20527;-55
2022/07/11 12:19:15;;;;;;;2.10;1.90;;;27.70;78.70;;;;;;5072905;28;20468;-55
2022/07/11 12:21:45;;;;;;;2.67;2.47;;;27.60;80.10;;;;;;5073306;28;20993;-55
2022/07/11 12:24:17;;;;;;;2.50;2.30;;;27.50;78.80;;;;;;5073428;28;20425;-55
2022/07/11 12:26:44;;;;;;;2.07;1.87;;;27.10;79.40;;;;;;5073166;28;20518;-55
2022/07/11 12:29:16;;;;;;;2.17;1.97;;;27.10;80.00;;;;;;5072796;28;20543;-55
2022/07/11 12:31:48;;;;;;;2.53;2.33;;;26.90;82.00;;;;;;5073050;28;20439;-55
2022/07/11 12:34:16;;;;;;;2.70;2.50;;;26.70;81.60;;;;;;5073388;28;20486;-55
2022/07/11 12:36:46;;;;;;;3.13;2.30;;;26.40;81.90;;;;;;5073278;28;20452;-55
2022/07/11 12:39:24;;;;;;;3.20;3.00;;;26.30;82.60;;;;;;5071643;28;20526;-55
2022/07/11 12:41:52;;;;;;;2.60;2.40;;;26.10;83.40;;;;;;5073351;28;20435;-55
2022/07/11 12:47:08;;;;;;;2.30;2.10;;;26.00;85.00;;;;;;5072870;28;20424;-56
2022/07/11 12:49:35;;;;;;;2.97;2.60;;;25.80;84.60;;;;;;5072453;28;20505;-55
2022/07/11 12:52:05;;;;;;;3.20;2.33;;;25.60;84.70;;;;;;5072963;28;20962;-56
2022/07/11 12:54:34;;;;;;;2.63;2.43;;;25.40;83.90;;;;;;5072981;28;20449;-54
2022/07/11 12:57:02;;;;;;;2.60;2.40;;;25.00;84.90;;;;;;5073083;28;20531;-55
2022/07/11 12:59:32;;;;;;;2.90;2.70;;;25.10;85.70;;;;;;5072533;28;20872;-55
2022/07/11 13:02:03;;;;;;;5.13;2.50;;;25.40;85.50;;;;;;5072815;28;20523;-55
2022/07/11 13:04:38;;;;;;;4.47;2.30;;;25.30;84.80;;;;;;5072745;28;20424;-56
2022/07/11 13:10:11;;;;;;;6.10;2.60;;;25.00;86.40;;;;;;5072743;28;20590;-55
2022/07/11 13:12:38;;;;;;;2.80;2.50;;;25.40;87.80;;;;;;5072750;28;20497;-55